sensor_id;sensor_type;location;lat;lon;timestamp;P1;durP1;ratioP1;P2;durP2;ratioP2
15402;SDS011;7799;53.478;10.170;2023-04-03T00:02:25;0.80;;;0.57;;
15402;SDS011;7799;53.478;10.170;2023-04-03T00:04:52;0.60;;;0.60;;
15402;SDS011;7799;53.478;10.170;2023-04-03T00:07:19;1.53;;;0.90;;
15402;SDS011;7799;53.478;10.170;2023-04-03T00:09:45;1.37;;;0.70;;
15402;SDS011;7799;53.478;10.170;2023-04-03T00:12:12;0.70;;;0.70;;
15402;SDS011;7799;53.478;10.170;2023-04-03T00:14:39;0.70;;;0.70;;
15402;SDS011;7799;53.478;10.170;2023-04-03T00:17:07;0.80;;;0.80;;
15402;SDS011;7799;53.478;10.170;2023-04-03T00:19:33;0.77;;;0.73;;
15402;SDS011;7799;53.478;10.170;2023-04-03T00:22:00;0.70;;;0.70;;
15402;SDS011;7799;53.478;10.170;2023-04-03T00:24:27;0.60;;;0.60;;
15402;SDS011;7799;53.478;10.170;2023-04-03T00:26:55;0.60;;;0.60;;
15402;SDS011;7799;53.478;10.170;2023-04-03T00:29:22;0.60;;;0.60;;
15402;SDS011;7799;53.478;10.170;2023-04-03T00:31:49;0.50;;;0.50;;
15402;SDS011;7799;53.478;10.170;2023-04-03T00:34:17;0.83;;;0.70;;
15402;SDS011;7799;53.478;10.170;2023-04-03T00:36:44;0.60;;;0.60;;
15402;SDS011;7799;53.478;10.170;2023-04-03T00:39:10;0.80;;;0.70;;
15402;SDS011;7799;53.478;10.170;2023-04-03T00:41:37;0.60;;;0.60;;
15402;SDS011;7799;53.478;10.170;2023-04-03T00:44:18;1.07;;;0.70;;
15402;SDS011;7799;53.478;10.170;2023-04-03T00:46:47;1.63;;;0.97;;
15402;SDS011;7799;53.478;10.170;2023-04-03T00:49:14;0.87;;;0.80;;
15402;SDS011;7799;53.478;10.170;2023-04-03T00:51:42;0.83;;;0.83;;
15402;SDS011;7799;53.478;10.170;2023-04-03T00:54:09;0.80;;;0.70;;
15402;SDS011;7799;53.478;10.170;2023-04-03T00:56:36;1.00;;;0.90;;
15402;SDS011;7799;53.478;10.170;2023-04-03T00:59:03;0.50;;;0.50;;
15402;SDS011;7799;53.478;10.170;2023-04-03T01:01:31;0.70;;;0.70;;
15402;SDS011;7799;53.478;10.170;2023-04-03T01:03:58;1.37;;;0.90;;
15402;SDS011;7799;53.478;10.170;2023-04-03T01:06:28;1.00;;;0.83;;
15402;SDS011;7799;53.478;10.170;2023-04-03T01:09:04;0.70;;;0.70;;
15402;SDS011;7799;53.478;10.170;2023-04-03T01:11:31;0.60;;;0.60;;
15402;SDS011;7799;53.478;10.170;2023-04-03T01:14:00;0.87;;;0.87;;
15402;SDS011;7799;53.478;10.170;2023-04-03T01:16:27;0.70;;;0.70;;
15402;SDS011;7799;53.478;10.170;2023-04-03T01:18:57;0.80;;;0.80;;
15402;SDS011;7799;53.478;10.170;2023-04-03T01:21:30;0.67;;;0.67;;
15402;SDS011;7799;53.478;10.170;2023-04-03T01:24:24;0.50;;;0.50;;
15402;SDS011;7799;53.478;10.170;2023-04-03T01:26:55;0.50;;;0.50;;
15402;SDS011;7799;53.478;10.170;2023-04-03T01:29:22;0.50;;;0.50;;
15402;SDS011;7799;53.478;10.170;2023-04-03T01:31:52;0.60;;;0.60;;
15402;SDS011;7799;53.478;10.170;2023-04-03T01:34:20;0.70;;;0.70;;
15402;SDS011;7799;53.478;10.170;2023-04-03T01:36:48;1.10;;;0.53;;
15402;SDS011;7799;53.478;10.170;2023-04-03T01:39:15;0.50;;;0.50;;
15402;SDS011;7799;53.478;10.170;2023-04-03T01:41:42;0.67;;;0.67;;
15402;SDS011;7799;53.478;10.170;2023-04-03T01:44:15;0.57;;;0.57;;
15402;SDS011;7799;53.478;10.170;2023-04-03T01:46:43;0.43;;;0.43;;
15402;SDS011;7799;53.478;10.170;2023-04-03T01:49:12;0.60;;;0.60;;
15402;SDS011;7799;53.478;10.170;2023-04-03T01:51:38;1.03;;;0.63;;
15402;SDS011;7799;53.478;10.170;2023-04-03T01:54:05;1.23;;;0.60;;
15402;SDS011;7799;53.478;10.170;2023-04-03T01:56:32;0.70;;;0.70;;
15402;SDS011;7799;53.478;10.170;2023-04-03T01:58:59;1.00;;;0.50;;
15402;SDS011;7799;53.478;10.170;2023-04-03T02:01:25;0.70;;;0.67;;
15402;SDS011;7799;53.478;10.170;2023-04-03T02:03:52;0.67;;;0.67;;
15402;SDS011;7799;53.478;10.170;2023-04-03T02:06:21;0.60;;;0.60;;
15402;SDS011;7799;53.478;10.170;2023-04-03T02:08:47;0.80;;;0.80;;
15402;SDS011;7799;53.478;10.170;2023-04-03T02:11:14;0.63;;;0.63;;
15402;SDS011;7799;53.478;10.170;2023-04-03T02:13:41;1.10;;;1.00;;
15402;SDS011;7799;53.478;10.170;2023-04-03T02:16:08;1.03;;;0.70;;
15402;SDS011;7799;53.478;10.170;2023-04-03T02:18:35;0.93;;;0.87;;
15402;SDS011;7799;53.478;10.170;2023-04-03T02:21:02;0.80;;;0.80;;
15402;SDS011;7799;53.478;10.170;2023-04-03T02:23:30;0.80;;;0.80;;
15402;SDS011;7799;53.478;10.170;2023-04-03T02:26:07;0.77;;;0.77;;
15402;SDS011;7799;53.478;10.170;2023-04-03T02:28:34;1.20;;;0.80;;
15402;SDS011;7799;53.478;10.170;2023-04-03T02:31:01;1.47;;;0.80;;
15402;SDS011;7799;53.478;10.170;2023-04-03T02:33:29;1.00;;;0.90;;
15402;SDS011;7799;53.478;10.170;2023-04-03T02:35:57;0.93;;;0.83;;
15402;SDS011;7799;53.478;10.170;2023-04-03T02:38:24;0.90;;;0.90;;
15402;SDS011;7799;53.478;10.170;2023-04-03T02:40:57;2.37;;;0.87;;
15402;SDS011;7799;53.478;10.170;2023-04-03T02:43:26;0.80;;;0.80;;
15402;SDS011;7799;53.478;10.170;2023-04-03T02:45:52;1.00;;;0.87;;
15402;SDS011;7799;53.478;10.170;2023-04-03T02:48:19;0.60;;;0.60;;
15402;SDS011;7799;53.478;10.170;2023-04-03T02:50:46;1.80;;;0.77;;
15402;SDS011;7799;53.478;10.170;2023-04-03T02:53:13;0.80;;;0.80;;
15402;SDS011;7799;53.478;10.170;2023-04-03T02:55:40;0.77;;;0.77;;
15402;SDS011;7799;53.478;10.170;2023-04-03T02:58:08;0.80;;;0.70;;
15402;SDS011;7799;53.478;10.170;2023-04-03T03:00:35;0.93;;;0.60;;
15402;SDS011;7799;53.478;10.170;2023-04-03T03:03:02;1.20;;;0.70;;
15402;SDS011;7799;53.478;10.170;2023-04-03T03:05:30;0.70;;;0.70;;
15402;SDS011;7799;53.478;10.170;2023-04-03T03:07:56;0.70;;;0.70;;
15402;SDS011;7799;53.478;10.170;2023-04-03T03:10:23;0.73;;;0.70;;
15402;SDS011;7799;53.478;10.170;2023-04-03T03:12:50;0.70;;;0.60;;
15402;SDS011;7799;53.478;10.170;2023-04-03T03:15:18;0.67;;;0.67;;
15402;SDS011;7799;53.478;10.170;2023-04-03T03:17:45;1.03;;;0.90;;
15402;SDS011;7799;53.478;10.170;2023-04-03T03:20:12;1.07;;;0.90;;
15402;SDS011;7799;53.478;10.170;2023-04-03T03:22:40;0.87;;;0.80;;
15402;SDS011;7799;53.478;10.170;2023-04-03T03:25:07;0.87;;;0.80;;
15402;SDS011;7799;53.478;10.170;2023-04-03T03:27:35;0.70;;;0.70;;
15402;SDS011;7799;53.478;10.170;2023-04-03T03:30:03;1.00;;;0.90;;
15402;SDS011;7799;53.478;10.170;2023-04-03T03:32:32;0.77;;;0.67;;
15402;SDS011;7799;53.478;10.170;2023-04-03T03:35:00;1.00;;;0.90;;
15402;SDS011;7799;53.478;10.170;2023-04-03T03:37:27;1.03;;;0.80;;
15402;SDS011;7799;53.478;10.170;2023-04-03T03:39:53;1.60;;;0.77;;
15402;SDS011;7799;53.478;10.170;2023-04-03T03:42:20;0.73;;;0.73;;
15402;SDS011;7799;53.478;10.170;2023-04-03T03:44:48;0.63;;;0.63;;
15402;SDS011;7799;53.478;10.170;2023-04-03T03:47:15;1.77;;;1.00;;
15402;SDS011;7799;53.478;10.170;2023-04-03T03:49:43;0.80;;;0.70;;
15402;SDS011;7799;53.478;10.170;2023-04-03T03:52:09;0.83;;;0.80;;
15402;SDS011;7799;53.478;10.170;2023-04-03T03:54:36;1.50;;;0.73;;
15402;SDS011;7799;53.478;10.170;2023-04-03T03:57:03;1.17;;;1.07;;
15402;SDS011;7799;53.478;10.170;2023-04-03T03:59:30;0.70;;;0.70;;
15402;SDS011;7799;53.478;10.170;2023-04-03T04:01:57;0.70;;;0.70;;
15402;SDS011;7799;53.478;10.170;2023-04-03T04:04:23;1.23;;;0.87;;
15402;SDS011;7799;53.478;10.170;2023-04-03T04:06:51;0.63;;;0.63;;
15402;SDS011;7799;53.478;10.170;2023-04-03T04:09:19;0.60;;;0.60;;
15402;SDS011;7799;53.478;10.170;2023-04-03T04:11:46;0.60;;;0.60;;
15402;SDS011;7799;53.478;10.170;2023-04-03T04:14:15;0.70;;;0.60;;
15402;SDS011;7799;53.478;10.170;2023-04-03T04:16:42;0.90;;;0.80;;
15402;SDS011;7799;53.478;10.170;2023-04-03T04:19:14;0.40;;;0.40;;
15402;SDS011;7799;53.478;10.170;2023-04-03T04:21:43;0.70;;;0.70;;
15402;SDS011;7799;53.478;10.170;2023-04-03T04:24:11;0.60;;;0.60;;
15402;SDS011;7799;53.478;10.170;2023-04-03T04:26:38;0.50;;;0.50;;
15402;SDS011;7799;53.478;10.170;2023-04-03T04:29:05;0.60;;;0.60;;
15402;SDS011;7799;53.478;10.170;2023-04-03T04:31:34;0.50;;;0.50;;
15402;SDS011;7799;53.478;10.170;2023-04-03T04:34:01;0.50;;;0.50;;
15402;SDS011;7799;53.478;10.170;2023-04-03T04:36:28;0.60;;;0.60;;
15402;SDS011;7799;53.478;10.170;2023-04-03T04:38:55;0.50;;;0.50;;
15402;SDS011;7799;53.478;10.170;2023-04-03T04:41:26;0.50;;;0.50;;
15402;SDS011;7799;53.478;10.170;2023-04-03T04:43:52;0.50;;;0.50;;
15402;SDS011;7799;53.478;10.170;2023-04-03T04:46:20;0.67;;;0.60;;
15402;SDS011;7799;53.478;10.170;2023-04-03T04:48:52;0.70;;;0.60;;
15402;SDS011;7799;53.478;10.170;2023-04-03T04:51:20;0.67;;;0.67;;
15402;SDS011;7799;53.478;10.170;2023-04-03T04:53:46;0.70;;;0.70;;
15402;SDS011;7799;53.478;10.170;2023-04-03T04:56:16;0.50;;;0.50;;
15402;SDS011;7799;53.478;10.170;2023-04-03T04:58:44;1.30;;;0.50;;
15402;SDS011;7799;53.478;10.170;2023-04-03T05:01:11;0.70;;;0.70;;
15402;SDS011;7799;53.478;10.170;2023-04-03T05:04:04;0.50;;;0.50;;
15402;SDS011;7799;53.478;10.170;2023-04-03T05:06:31;0.60;;;0.60;;
15402;SDS011;7799;53.478;10.170;2023-04-03T05:08:59;0.53;;;0.53;;
15402;SDS011;7799;53.478;10.170;2023-04-03T05:11:27;0.50;;;0.50;;
15402;SDS011;7799;53.478;10.170;2023-04-03T05:13:55;0.40;;;0.40;;
15402;SDS011;7799;53.478;10.170;2023-04-03T05:16:23;0.90;;;0.60;;
15402;SDS011;7799;53.478;10.170;2023-04-03T05:18:50;0.50;;;0.50;;
15402;SDS011;7799;53.478;10.170;2023-04-03T05:21:20;0.60;;;0.60;;
15402;SDS011;7799;53.478;10.170;2023-04-03T05:23:49;0.60;;;0.60;;
15402;SDS011;7799;53.478;10.170;2023-04-03T05:26:17;0.60;;;0.60;;
15402;SDS011;7799;53.478;10.170;2023-04-03T05:28:46;0.57;;;0.57;;
15402;SDS011;7799;53.478;10.170;2023-04-03T05:31:15;0.60;;;0.60;;
15402;SDS011;7799;53.478;10.170;2023-04-03T05:33:42;0.60;;;0.60;;
15402;SDS011;7799;53.478;10.170;2023-04-03T05:36:14;0.63;;;0.60;;
15402;SDS011;7799;53.478;10.170;2023-04-03T05:38:44;0.60;;;0.60;;
15402;SDS011;7799;53.478;10.170;2023-04-03T05:41:11;0.67;;;0.67;;
15402;SDS011;7799;53.478;10.170;2023-04-03T05:43:38;0.60;;;0.60;;
15402;SDS011;7799;53.478;10.170;2023-04-03T05:46:09;0.50;;;0.50;;
15402;SDS011;7799;53.478;10.170;2023-04-03T05:48:38;0.60;;;0.60;;
15402;SDS011;7799;53.478;10.170;2023-04-03T05:51:06;1.00;;;0.53;;
15402;SDS011;7799;53.478;10.170;2023-04-03T05:53:35;0.60;;;0.60;;
15402;SDS011;7799;53.478;10.170;2023-04-03T05:56:03;0.90;;;0.80;;
15402;SDS011;7799;53.478;10.170;2023-04-03T05:58:36;0.60;;;0.60;;
15402;SDS011;7799;53.478;10.170;2023-04-03T06:01:02;0.60;;;0.60;;
15402;SDS011;7799;53.478;10.170;2023-04-03T06:03:31;0.60;;;0.60;;
15402;SDS011;7799;53.478;10.170;2023-04-03T06:06:00;1.23;;;0.80;;
15402;SDS011;7799;53.478;10.170;2023-04-03T06:08:29;0.70;;;0.70;;
15402;SDS011;7799;53.478;10.170;2023-04-03T06:10:56;0.70;;;0.70;;
15402;SDS011;7799;53.478;10.170;2023-04-03T06:13:23;0.63;;;0.63;;
15402;SDS011;7799;53.478;10.170;2023-04-03T06:15:50;0.73;;;0.73;;
15402;SDS011;7799;53.478;10.170;2023-04-03T06:18:17;0.93;;;0.90;;
15402;SDS011;7799;53.478;10.170;2023-04-03T06:20:44;1.03;;;0.90;;
15402;SDS011;7799;53.478;10.170;2023-04-03T06:23:12;1.40;;;1.23;;
15402;SDS011;7799;53.478;10.170;2023-04-03T06:25:39;1.27;;;1.17;;
15402;SDS011;7799;53.478;10.170;2023-04-03T06:28:07;1.47;;;1.37;;
15402;SDS011;7799;53.478;10.170;2023-04-03T06:30:35;1.50;;;1.40;;
15402;SDS011;7799;53.478;10.170;2023-04-03T06:33:02;1.80;;;1.37;;
15402;SDS011;7799;53.478;10.170;2023-04-03T06:35:29;2.80;;;2.17;;
15402;SDS011;7799;53.478;10.170;2023-04-03T06:37:56;4.17;;;2.00;;
15402;SDS011;7799;53.478;10.170;2023-04-03T06:40:24;2.13;;;1.80;;
15402;SDS011;7799;53.478;10.170;2023-04-03T06:42:51;2.23;;;2.07;;
15402;SDS011;7799;53.478;10.170;2023-04-03T06:45:19;3.00;;;1.67;;
15402;SDS011;7799;53.478;10.170;2023-04-03T06:47:46;1.83;;;1.70;;
15402;SDS011;7799;53.478;10.170;2023-04-03T06:50:13;1.63;;;1.40;;
15402;SDS011;7799;53.478;10.170;2023-04-03T06:52:40;2.13;;;2.00;;
15402;SDS011;7799;53.478;10.170;2023-04-03T06:55:07;2.73;;;1.93;;
15402;SDS011;7799;53.478;10.170;2023-04-03T06:57:36;1.80;;;1.70;;
15402;SDS011;7799;53.478;10.170;2023-04-03T07:00:04;1.40;;;1.30;;
15402;SDS011;7799;53.478;10.170;2023-04-03T07:02:34;1.37;;;1.27;;
15402;SDS011;7799;53.478;10.170;2023-04-03T07:05:01;1.40;;;1.10;;
15402;SDS011;7799;53.478;10.170;2023-04-03T07:07:27;2.00;;;1.40;;
15402;SDS011;7799;53.478;10.170;2023-04-03T07:09:54;2.27;;;1.20;;
15402;SDS011;7799;53.478;10.170;2023-04-03T07:12:21;1.30;;;1.00;;
15402;SDS011;7799;53.478;10.170;2023-04-03T07:14:49;1.40;;;1.10;;
15402;SDS011;7799;53.478;10.170;2023-04-03T07:17:16;1.20;;;1.10;;
15402;SDS011;7799;53.478;10.170;2023-04-03T07:19:42;1.03;;;1.03;;
15402;SDS011;7799;53.478;10.170;2023-04-03T07:22:09;2.60;;;1.00;;
15402;SDS011;7799;53.478;10.170;2023-04-03T07:24:36;2.03;;;1.00;;
15402;SDS011;7799;53.478;10.170;2023-04-03T07:27:03;1.47;;;1.00;;
15402;SDS011;7799;53.478;10.170;2023-04-03T07:29:30;1.23;;;1.00;;
15402;SDS011;7799;53.478;10.170;2023-04-03T07:31:58;1.37;;;1.20;;
15402;SDS011;7799;53.478;10.170;2023-04-03T07:34:25;3.00;;;1.20;;
15402;SDS011;7799;53.478;10.170;2023-04-03T07:36:52;1.20;;;1.00;;
15402;SDS011;7799;53.478;10.170;2023-04-03T07:39:19;2.23;;;1.20;;
15402;SDS011;7799;53.478;10.170;2023-04-03T07:41:45;1.20;;;0.93;;
15402;SDS011;7799;53.478;10.170;2023-04-03T07:44:12;1.77;;;1.13;;
15402;SDS011;7799;53.478;10.170;2023-04-03T07:46:39;1.20;;;0.93;;
15402;SDS011;7799;53.478;10.170;2023-04-03T07:49:07;1.00;;;0.90;;
15402;SDS011;7799;53.478;10.170;2023-04-03T07:51:34;3.07;;;1.27;;
15402;SDS011;7799;53.478;10.170;2023-04-03T07:54:01;1.57;;;0.90;;
15402;SDS011;7799;53.478;10.170;2023-04-03T07:56:27;2.80;;;1.20;;
15402;SDS011;7799;53.478;10.170;2023-04-03T07:58:54;1.93;;;1.10;;
15402;SDS011;7799;53.478;10.170;2023-04-03T08:01:21;3.27;;;1.50;;
15402;SDS011;7799;53.478;10.170;2023-04-03T08:03:47;2.07;;;1.17;;
15402;SDS011;7799;53.478;10.170;2023-04-03T08:06:15;2.47;;;1.50;;
15402;SDS011;7799;53.478;10.170;2023-04-03T08:08:42;1.07;;;0.90;;
15402;SDS011;7799;53.478;10.170;2023-04-03T08:11:09;0.90;;;0.90;;
15402;SDS011;7799;53.478;10.170;2023-04-03T08:13:37;1.17;;;1.07;;
15402;SDS011;7799;53.478;10.170;2023-04-03T08:16:08;0.93;;;0.93;;
15402;SDS011;7799;53.478;10.170;2023-04-03T08:18:36;1.27;;;0.70;;
15402;SDS011;7799;53.478;10.170;2023-04-03T08:21:07;0.87;;;0.83;;
15402;SDS011;7799;53.478;10.170;2023-04-03T08:23:35;1.00;;;0.90;;
15402;SDS011;7799;53.478;10.170;2023-04-03T08:26:06;1.00;;;0.90;;
15402;SDS011;7799;53.478;10.170;2023-04-03T08:28:33;1.37;;;0.90;;
15402;SDS011;7799;53.478;10.170;2023-04-03T08:31:02;2.23;;;0.73;;
15402;SDS011;7799;53.478;10.170;2023-04-03T08:33:31;1.60;;;0.87;;
15402;SDS011;7799;53.478;10.170;2023-04-03T08:35:58;1.17;;;0.70;;
15402;SDS011;7799;53.478;10.170;2023-04-03T08:38:25;1.30;;;0.90;;
15402;SDS011;7799;53.478;10.170;2023-04-03T08:41:00;1.20;;;0.80;;
15402;SDS011;7799;53.478;10.170;2023-04-03T08:43:30;1.97;;;0.90;;
15402;SDS011;7799;53.478;10.170;2023-04-03T08:46:03;1.73;;;0.90;;
15402;SDS011;7799;53.478;10.170;2023-04-03T08:48:32;0.73;;;0.70;;
15402;SDS011;7799;53.478;10.170;2023-04-03T08:51:00;2.00;;;0.70;;
15402;SDS011;7799;53.478;10.170;2023-04-03T08:53:31;0.70;;;0.67;;
15402;SDS011;7799;53.478;10.170;2023-04-03T08:56:02;0.63;;;0.63;;
15402;SDS011;7799;53.478;10.170;2023-04-03T08:58:33;0.70;;;0.70;;
15402;SDS011;7799;53.478;10.170;2023-04-03T09:01:02;0.73;;;0.73;;
15402;SDS011;7799;53.478;10.170;2023-04-03T09:03:31;0.93;;;0.80;;
15402;SDS011;7799;53.478;10.170;2023-04-03T09:06:00;1.60;;;0.90;;
15402;SDS011;7799;53.478;10.170;2023-04-03T09:08:30;1.37;;;0.70;;
15402;SDS011;7799;53.478;10.170;2023-04-03T09:11:03;1.17;;;0.77;;
15402;SDS011;7799;53.478;10.170;2023-04-03T09:13:37;1.27;;;0.80;;
15402;SDS011;7799;53.478;10.170;2023-04-03T09:16:18;0.77;;;0.60;;
15402;SDS011;7799;53.478;10.170;2023-04-03T09:18:52;0.60;;;0.60;;
15402;SDS011;7799;53.478;10.170;2023-04-03T09:21:22;1.00;;;0.50;;
15402;SDS011;7799;53.478;10.170;2023-04-03T09:23:51;0.73;;;0.73;;
15402;SDS011;7799;53.478;10.170;2023-04-03T09:26:21;0.73;;;0.70;;
15402;SDS011;7799;53.478;10.170;2023-04-03T09:28:51;0.73;;;0.60;;
15402;SDS011;7799;53.478;10.170;2023-04-03T09:31:20;0.70;;;0.70;;
15402;SDS011;7799;53.478;10.170;2023-04-03T09:33:49;1.50;;;0.87;;
15402;SDS011;7799;53.478;10.170;2023-04-03T09:39:03;0.87;;;0.80;;
15402;SDS011;7799;53.478;10.170;2023-04-03T09:41:32;1.07;;;0.70;;
15402;SDS011;7799;53.478;10.170;2023-04-03T09:43:59;0.73;;;0.60;;
15402;SDS011;7799;53.478;10.170;2023-04-03T09:46:29;0.67;;;0.67;;
15402;SDS011;7799;53.478;10.170;2023-04-03T09:48:57;0.80;;;0.80;;
15402;SDS011;7799;53.478;10.170;2023-04-03T09:51:25;1.03;;;0.60;;
15402;SDS011;7799;53.478;10.170;2023-04-03T09:53:53;1.40;;;0.83;;
15402;SDS011;7799;53.478;10.170;2023-04-03T09:56:22;0.70;;;0.70;;
15402;SDS011;7799;53.478;10.170;2023-04-03T09:59:01;0.60;;;0.60;;
15402;SDS011;7799;53.478;10.170;2023-04-03T10:01:33;0.93;;;0.70;;
15402;SDS011;7799;53.478;10.170;2023-04-03T10:04:02;1.07;;;0.70;;
15402;SDS011;7799;53.478;10.170;2023-04-03T10:06:36;0.60;;;0.60;;
15402;SDS011;7799;53.478;10.170;2023-04-03T10:09:06;1.23;;;0.90;;
15402;SDS011;7799;53.478;10.170;2023-04-03T10:11:49;1.57;;;0.90;;
15402;SDS011;7799;53.478;10.170;2023-04-03T10:14:25;0.80;;;0.70;;
15402;SDS011;7799;53.478;10.170;2023-04-03T10:16:53;0.77;;;0.60;;
15402;SDS011;7799;53.478;10.170;2023-04-03T10:19:33;1.00;;;1.00;;
15402;SDS011;7799;53.478;10.170;2023-04-03T10:22:02;0.70;;;0.70;;
15402;SDS011;7799;53.478;10.170;2023-04-03T10:24:33;0.70;;;0.70;;
15402;SDS011;7799;53.478;10.170;2023-04-03T10:27:03;0.90;;;0.90;;
15402;SDS011;7799;53.478;10.170;2023-04-03T10:29:40;1.43;;;0.90;;
15402;SDS011;7799;53.478;10.170;2023-04-03T10:32:13;0.97;;;0.80;;
15402;SDS011;7799;53.478;10.170;2023-04-03T10:34:45;0.70;;;0.60;;
15402;SDS011;7799;53.478;10.170;2023-04-03T10:37:14;0.97;;;0.60;;
15402;SDS011;7799;53.478;10.170;2023-04-03T10:39:46;0.70;;;0.70;;
15402;SDS011;7799;53.478;10.170;2023-04-03T10:42:22;0.83;;;0.70;;
15402;SDS011;7799;53.478;10.170;2023-04-03T10:44:59;0.73;;;0.70;;
15402;SDS011;7799;53.478;10.170;2023-04-03T10:47:31;1.40;;;0.80;;
15402;SDS011;7799;53.478;10.170;2023-04-03T10:50:06;0.87;;;0.77;;
15402;SDS011;7799;53.478;10.170;2023-04-03T10:52:41;0.70;;;0.70;;
15402;SDS011;7799;53.478;10.170;2023-04-03T10:55:16;0.90;;;0.90;;
15402;SDS011;7799;53.478;10.170;2023-04-03T10:57:50;0.70;;;0.70;;
15402;SDS011;7799;53.478;10.170;2023-04-03T11:00:19;1.23;;;0.70;;
15402;SDS011;7799;53.478;10.170;2023-04-03T11:02:50;1.77;;;1.00;;
15402;SDS011;7799;53.478;10.170;2023-04-03T11:05:29;1.37;;;0.83;;
15402;SDS011;7799;53.478;10.170;2023-04-03T11:07:59;1.07;;;0.97;;
15402;SDS011;7799;53.478;10.170;2023-04-03T11:10:31;1.13;;;0.80;;
15402;SDS011;7799;53.478;10.170;2023-04-03T11:13:06;1.03;;;0.80;;
15402;SDS011;7799;53.478;10.170;2023-04-03T11:15:38;0.83;;;0.80;;
15402;SDS011;7799;53.478;10.170;2023-04-03T11:18:06;1.17;;;0.90;;
15402;SDS011;7799;53.478;10.170;2023-04-03T11:20:37;1.60;;;0.90;;
15402;SDS011;7799;53.478;10.170;2023-04-03T11:23:06;0.77;;;0.70;;
15402;SDS011;7799;53.478;10.170;2023-04-03T11:25:41;0.80;;;0.80;;
15402;SDS011;7799;53.478;10.170;2023-04-03T11:28:11;1.13;;;0.90;;
15402;SDS011;7799;53.478;10.170;2023-04-03T11:30:43;0.97;;;0.83;;
15402;SDS011;7799;53.478;10.170;2023-04-03T11:33:15;1.30;;;0.70;;
15402;SDS011;7799;53.478;10.170;2023-04-03T11:35:51;1.13;;;0.87;;
15402;SDS011;7799;53.478;10.170;2023-04-03T11:38:21;0.77;;;0.77;;
15402;SDS011;7799;53.478;10.170;2023-04-03T11:40:51;1.23;;;0.80;;
15402;SDS011;7799;53.478;10.170;2023-04-03T11:43:22;0.80;;;0.70;;
15402;SDS011;7799;53.478;10.170;2023-04-03T11:45:59;1.60;;;0.80;;
15402;SDS011;7799;53.478;10.170;2023-04-03T11:48:48;1.00;;;0.90;;
15402;SDS011;7799;53.478;10.170;2023-04-03T12:12:30;1.13;;;0.77;;
15402;SDS011;7799;53.478;10.170;2023-04-03T12:21:08;0.93;;;0.93;;
15402;SDS011;7799;53.478;10.170;2023-04-03T12:23:35;1.57;;;1.00;;
15402;SDS011;7799;53.478;10.170;2023-04-03T12:26:06;1.47;;;1.00;;
15402;SDS011;7799;53.478;10.170;2023-04-03T12:28:47;1.00;;;0.90;;
15402;SDS011;7799;53.478;10.170;2023-04-03T12:31:15;1.40;;;0.87;;
15402;SDS011;7799;53.478;10.170;2023-04-03T12:33:50;1.13;;;0.77;;
15402;SDS011;7799;53.478;10.170;2023-04-03T12:36:26;0.63;;;0.60;;
15402;SDS011;7799;53.478;10.170;2023-04-03T12:39:01;3.13;;;1.00;;
15402;SDS011;7799;53.478;10.170;2023-04-03T12:41:37;0.90;;;0.80;;
15402;SDS011;7799;53.478;10.170;2023-04-03T12:44:08;1.33;;;1.10;;
15402;SDS011;7799;53.478;10.170;2023-04-03T12:46:59;1.67;;;1.00;;
15402;SDS011;7799;53.478;10.170;2023-04-03T12:49:32;1.83;;;0.93;;
15402;SDS011;7799;53.478;10.170;2023-04-03T12:52:00;1.50;;;0.80;;
15402;SDS011;7799;53.478;10.170;2023-04-03T12:54:30;1.43;;;0.90;;
15402;SDS011;7799;53.478;10.170;2023-04-03T12:57:13;1.17;;;0.77;;
15402;SDS011;7799;53.478;10.170;2023-04-03T12:59:43;1.13;;;0.90;;
15402;SDS011;7799;53.478;10.170;2023-04-03T13:02:17;0.73;;;0.70;;
15402;SDS011;7799;53.478;10.170;2023-04-03T13:04:48;0.80;;;0.80;;
15402;SDS011;7799;53.478;10.170;2023-04-03T13:07:19;1.17;;;0.80;;
15402;SDS011;7799;53.478;10.170;2023-04-03T13:09:54;1.97;;;1.00;;
15402;SDS011;7799;53.478;10.170;2023-04-03T13:12:23;0.80;;;0.70;;
15402;SDS011;7799;53.478;10.170;2023-04-03T13:14:53;0.60;;;0.60;;
15402;SDS011;7799;53.478;10.170;2023-04-03T13:17:22;1.07;;;0.90;;
15402;SDS011;7799;53.478;10.170;2023-04-03T13:19:48;0.70;;;0.70;;
15402;SDS011;7799;53.478;10.170;2023-04-03T13:22:20;0.70;;;0.70;;
15402;SDS011;7799;53.478;10.170;2023-04-03T13:24:50;0.70;;;0.70;;
15402;SDS011;7799;53.478;10.170;2023-04-03T13:27:18;0.83;;;0.60;;
15402;SDS011;7799;53.478;10.170;2023-04-03T13:29:48;0.63;;;0.63;;
15402;SDS011;7799;53.478;10.170;2023-04-03T13:32:17;0.50;;;0.50;;
15402;SDS011;7799;53.478;10.170;2023-04-03T13:34:45;0.60;;;0.60;;
15402;SDS011;7799;53.478;10.170;2023-04-03T13:37:19;1.07;;;0.80;;
15402;SDS011;7799;53.478;10.170;2023-04-03T13:39:56;1.00;;;0.70;;
15402;SDS011;7799;53.478;10.170;2023-04-03T13:42:25;1.90;;;1.20;;
15402;SDS011;7799;53.478;10.170;2023-04-03T13:45:16;0.60;;;0.60;;
15402;SDS011;7799;53.478;10.170;2023-04-03T13:47:45;0.90;;;0.60;;
15402;SDS011;7799;53.478;10.170;2023-04-03T13:50:15;0.97;;;0.67;;
15402;SDS011;7799;53.478;10.170;2023-04-03T13:52:43;0.97;;;0.90;;
15402;SDS011;7799;53.478;10.170;2023-04-03T13:55:17;1.50;;;0.70;;
15402;SDS011;7799;53.478;10.170;2023-04-03T13:57:56;1.20;;;0.80;;
15402;SDS011;7799;53.478;10.170;2023-04-03T14:00:29;0.67;;;0.57;;
15402;SDS011;7799;53.478;10.170;2023-04-03T14:03:02;1.13;;;0.80;;
15402;SDS011;7799;53.478;10.170;2023-04-03T14:05:29;2.03;;;0.80;;
15402;SDS011;7799;53.478;10.170;2023-04-03T14:07:56;1.90;;;0.90;;
15402;SDS011;7799;53.478;10.170;2023-04-03T14:10:24;0.87;;;0.83;;
15402;SDS011;7799;53.478;10.170;2023-04-03T14:12:50;1.00;;;0.90;;
15402;SDS011;7799;53.478;10.170;2023-04-03T14:15:18;1.43;;;0.70;;
15402;SDS011;7799;53.478;10.170;2023-04-03T14:17:48;0.70;;;0.70;;
15402;SDS011;7799;53.478;10.170;2023-04-03T14:20:17;1.37;;;0.73;;
15402;SDS011;7799;53.478;10.170;2023-04-03T14:22:45;0.80;;;0.60;;
15402;SDS011;7799;53.478;10.170;2023-04-03T14:25:12;0.97;;;0.70;;
15402;SDS011;7799;53.478;10.170;2023-04-03T14:27:39;0.70;;;0.67;;
15402;SDS011;7799;53.478;10.170;2023-04-03T14:30:08;1.50;;;0.70;;
15402;SDS011;7799;53.478;10.170;2023-04-03T14:32:38;1.20;;;0.80;;
15402;SDS011;7799;53.478;10.170;2023-04-03T14:35:07;0.90;;;0.60;;
15402;SDS011;7799;53.478;10.170;2023-04-03T14:37:34;0.87;;;0.50;;
15402;SDS011;7799;53.478;10.170;2023-04-03T14:40:01;0.73;;;0.60;;
15402;SDS011;7799;53.478;10.170;2023-04-03T14:42:34;0.77;;;0.77;;
15402;SDS011;7799;53.478;10.170;2023-04-03T14:45:03;1.40;;;0.80;;
15402;SDS011;7799;53.478;10.170;2023-04-03T14:47:31;1.10;;;0.80;;
15402;SDS011;7799;53.478;10.170;2023-04-03T14:49:58;0.70;;;0.50;;
15402;SDS011;7799;53.478;10.170;2023-04-03T14:52:27;1.13;;;0.77;;
15402;SDS011;7799;53.478;10.170;2023-04-03T14:54:56;0.97;;;0.70;;
15402;SDS011;7799;53.478;10.170;2023-04-03T14:57:23;1.57;;;0.80;;
15402;SDS011;7799;53.478;10.170;2023-04-03T14:59:51;0.70;;;0.70;;
15402;SDS011;7799;53.478;10.170;2023-04-03T15:02:26;1.10;;;0.70;;
15402;SDS011;7799;53.478;10.170;2023-04-03T15:04:54;1.07;;;0.77;;
15402;SDS011;7799;53.478;10.170;2023-04-03T15:07:21;2.93;;;0.80;;
15402;SDS011;7799;53.478;10.170;2023-04-03T15:09:50;0.90;;;0.70;;
15402;SDS011;7799;53.478;10.170;2023-04-03T15:12:17;0.83;;;0.70;;
15402;SDS011;7799;53.478;10.170;2023-04-03T15:14:44;0.70;;;0.63;;
15402;SDS011;7799;53.478;10.170;2023-04-03T15:17:13;0.90;;;0.90;;
15402;SDS011;7799;53.478;10.170;2023-04-03T15:19:41;1.07;;;0.87;;
15402;SDS011;7799;53.478;10.170;2023-04-03T15:22:09;0.90;;;0.87;;
15402;SDS011;7799;53.478;10.170;2023-04-03T15:24:39;0.60;;;0.60;;
15402;SDS011;7799;53.478;10.170;2023-04-03T15:27:07;0.73;;;0.73;;
15402;SDS011;7799;53.478;10.170;2023-04-03T15:29:34;1.37;;;1.07;;
15402;SDS011;7799;53.478;10.170;2023-04-03T15:32:01;0.80;;;0.80;;